Time,TemperatureF,DewpointF,PressureIn,WindDirection,WindDirectionDegrees,WindSpeedMPH,WindSpeedGustMPH,Humidity,HourlyPrecipIn,Conditions,Clouds,dailyrainin,SoftwareType,DateUTC
2013-03-01 00:00:00,25.1,22.0,29.87,West,270,9.0,22.0,88,0.00,,,0.00,VWS V12.07,2013-03-01 05:00:00,
2013-03-01 00:10:00,25.1,22.0,29.87,WNW,292,9.0,22.0,88,0.00,,,0.00,VWS V12.07,2013-03-01 05:10:00,
2013-03-01 00:20:00,25.1,22.0,29.88,WNW,292,5.0,15.0,88,0.00,,,0.00,VWS V12.07,2013-03-01 05:20:00,
2013-03-01 00:30:00,25.1,22.0,29.88,NW,315,6.0,17.0,88,0.00,,,0.00,VWS V12.07,2013-03-01 05:30:00,
2013-03-01 00:40:00,25.1,22.0,29.88,WNW,292,7.0,19.0,88,0.00,,,0.00,VWS V12.07,2013-03-01 05:40:00,
2013-03-01 00:50:00,25.1,22.0,29.89,WNW,292,8.0,17.0,88,0.00,,,0.00,VWS V12.07,2013-03-01 05:50:00,
2013-03-01 01:00:00,25.1,22.0,29.90,NW,315,5.0,18.0,88,0.00,,,0.00,VWS V12.07,2013-03-01 06:00:00,
2013-03-01 01:10:00,25.1,22.0,29.90,WNW,292,8.0,20.0,88,0.00,,,0.00,VWS V12.07,2013-03-01 06:10:00,
2013-03-01 01:20:00,25.1,22.0,29.88,WNW,292,8.0,18.0,88,0.00,,,0.00,VWS V12.07,2013-03-01 06:20:00,
2013-03-01 01:30:00,25.3,22.2,29.87,WNW,292,6.0,15.0,88,0.00,,,0.00,VWS V12.07,2013-03-01 06:30:00,
2013-03-01 01:40:00,25.3,22.2,29.87,WNW,292,5.0,12.0,88,0.00,,,0.00,VWS V12.07,2013-03-01 06:40:00,
2013-03-01 01:50:00,25.3,22.0,29.87,WNW,292,6.0,15.0,87,0.00,,,0.00,VWS V12.07,2013-03-01 06:50:00,
2013-03-01 02:00:00,25.3,22.0,29.87,WNW,292,5.0,16.0,87,0.00,,,0.00,VWS V12.07,2013-03-01 07:00:00,
2013-03-01 02:10:00,25.4,22.1,29.87,West,270,6.0,20.0,87,0.00,,,0.00,VWS V12.07,2013-03-01 07:10:00,
2013-03-01 02:20:00,25.6,22.0,29.87,West,270,5.0,13.0,86,0.00,,,0.00,VWS V12.07,2013-03-01 07:20:00,
2013-03-01 02:30:00,25.6,22.0,29.86,WNW,292,5.0,13.0,86,0.00,,,0.00,VWS V12.07,2013-03-01 07:30:00,
2013-03-01 02:40:00,25.6,22.0,29.86,WNW,292,7.0,21.0,86,0.00,,,0.00,VWS V12.07,2013-03-01 07:40:00,
2013-03-01 02:50:00,25.6,21.7,29.86,WNW,292,6.0,14.0,85,0.00,,,0.00,VWS V12.07,2013-03-01 07:50:00,
2013-03-01 03:00:00,25.7,21.8,29.86,WNW,292,6.0,13.0,85,0.00,,,0.00,VWS V12.07,2013-03-01 08:00:00,
2013-03-01 03:10:00,25.7,21.8,29.86,West,270,5.0,13.0,85,0.00,,,0.00,VWS V12.07,2013-03-01 08:10:00,
2013-03-01 03:20:00,25.7,22.1,29.86,WNW,292,4.0,11.0,86,0.00,,,0.00,VWS V12.07,2013-03-01 08:20:00,
2013-03-01 03:30:00,25.7,22.1,29.86,West,270,3.0,11.0,86,0.00,,,0.00,VWS V12.07,2013-03-01 08:30:00,
2013-03-01 03:40:00,25.6,22.0,29.86,West,270,6.0,15.0,86,0.00,,,0.00,VWS V12.07,2013-03-01 08:40:00,
2013-03-01 03:50:00,25.6,22.0,29.85,West,270,4.0,11.0,86,0.00,,,0.00,VWS V12.07,2013-03-01 08:50:00,
2013-03-01 04:00:00,25.6,22.0,29.86,WNW,292,2.0,10.0,86,0.00,,,0.00,VWS V12.07,2013-03-01 09:00:00,
2013-03-01 04:10:00,25.6,22.0,29.86,WNW,292,4.0,11.0,86,0.00,,,0.00,VWS V12.07,2013-03-01 09:10:00,
2013-03-01 04:20:00,25.6,22.0,29.86,West,270,5.0,12.0,86,0.00,,,0.00,VWS V12.07,2013-03-01 09:20:00,
2013-03-01 04:30:00,25.7,22.1,29.86,West,270,4.0,14.0,86,0.00,,,0.00,VWS V12.07,2013-03-01 09:30:00,
2013-03-01 04:40:00,25.7,22.1,29.86,West,270,6.0,13.0,86,0.00,,,0.00,VWS V12.07,2013-03-01 09:40:00,
2013-03-01 04:50:00,25.7,22.1,29.87,WNW,292,5.0,13.0,86,0.00,,,0.00,VWS V12.07,2013-03-01 09:50:00,
2013-03-01 05:00:00,25.7,22.4,29.87,WNW,292,4.0,12.0,87,0.00,,,0.00,VWS V12.07,2013-03-01 10:00:00,
2013-03-01 05:10:00,25.7,22.1,29.87,WNW,292,6.0,13.0,86,0.00,,,0.00,VWS V12.07,2013-03-01 10:10:00,
2013-03-01 05:20:00,25.8,22.2,29.88,WNW,292,6.0,15.0,86,0.00,,,0.00,VWS V12.07,2013-03-01 10:20:00,
2013-03-01 05:30:00,25.8,21.9,29.89,NW,315,5.0,14.0,85,0.00,,,0.00,VWS V12.07,2013-03-01 10:30:00,
2013-03-01 05:40:00,25.8,21.9,29.89,NW,315,5.0,14.0,85,0.00,,,0.00,VWS V12.07,2013-03-01 10:40:00,
2013-03-01 05:50:00,25.8,21.9,29.89,NW,315,3.0,9.0,85,0.00,,,0.00,VWS V12.07,2013-03-01 10:50:00,
2013-03-01 06:00:00,25.8,22.2,29.89,WNW,292,2.0,7.0,86,0.00,,,0.00,VWS V12.07,2013-03-01 11:00:00,
2013-03-01 06:10:00,25.8,22.2,29.89,West,270,4.0,13.0,86,0.00,,,0.00,VWS V12.07,2013-03-01 11:10:00,
2013-03-01 06:20:00,25.8,22.2,29.89,West,270,5.0,14.0,86,0.00,,,0.00,VWS V12.07,2013-03-01 11:20:00,
2013-03-01 06:30:00,25.8,22.2,29.89,West,270,5.0,15.0,86,0.00,,,0.00,VWS V12.07,2013-03-01 11:30:00,
2013-03-01 06:40:00,25.8,22.2,29.89,WNW,292,4.0,9.0,86,0.00,,,0.00,VWS V12.07,2013-03-01 11:40:00,
2013-03-01 06:50:00,25.8,22.5,29.89,West,270,3.0,7.0,87,0.00,,,0.00,VWS V12.07,2013-03-01 11:50:00,
2013-03-01 07:00:00,25.8,22.2,29.89,NW,315,5.0,13.0,86,0.00,,,0.00,VWS V12.07,2013-03-01 12:00:00,
2013-03-01 07:10:00,25.8,22.2,29.89,WNW,292,5.0,12.0,86,0.00,,,0.00,VWS V12.07,2013-03-01 12:10:00,
2013-03-01 07:20:00,25.8,22.2,29.88,WNW,292,4.0,14.0,86,0.00,,,0.00,VWS V12.07,2013-03-01 12:20:00,
2013-03-01 07:30:00,26.0,22.4,29.89,West,270,2.0,8.0,86,0.00,,,0.00,VWS V12.07,2013-03-01 12:30:00,
2013-03-01 07:40:00,26.0,22.4,29.89,West,270,4.0,11.0,86,0.00,,,0.00,VWS V12.07,2013-03-01 12:40:00,
2013-03-01 07:50:00,26.0,22.4,29.90,WNW,292,6.0,15.0,86,0.00,,,0.00,VWS V12.07,2013-03-01 12:50:00,
2013-03-01 08:00:00,26.0,22.4,29.90,WNW,292,4.0,10.0,86,0.00,,,0.00,VWS V12.07,2013-03-01 13:00:00,
2013-03-01 08:10:00,26.1,22.5,29.90,NW,315,3.0,10.0,86,0.00,,,0.00,VWS V12.07,2013-03-01 13:10:00,
2013-03-01 08:20:00,26.1,22.5,29.91,WNW,292,2.0,9.0,86,0.00,,,0.00,VWS V12.07,2013-03-01 13:20:00,
2013-03-01 08:30:00,26.3,22.7,29.91,West,270,2.0,9.0,86,0.00,,,0.00,VWS V12.07,2013-03-01 13:30:00,
2013-03-01 08:40:00,26.4,22.5,29.91,West,270,2.0,7.0,85,0.00,,,0.00,VWS V12.07,2013-03-01 13:40:00,
2013-03-01 08:50:00,26.4,22.5,29.91,WNW,292,3.0,9.0,85,0.00,,,0.00,VWS V12.07,2013-03-01 13:50:00,
2013-03-01 09:00:00,26.6,22.7,29.91,West,270,2.0,7.0,85,0.00,,,0.00,VWS V12.07,2013-03-01 14:00:00,
2013-03-01 09:10:00,26.6,22.7,29.91,WNW,292,5.0,10.0,85,0.00,,,0.00,VWS V12.07,2013-03-01 14:10:00,
2013-03-01 09:20:00,26.7,22.8,29.92,WNW,292,4.0,10.0,85,0.00,,,0.00,VWS V12.07,2013-03-01 14:20:00,
2013-03-01 09:30:00,27.0,22.8,29.91,WNW,292,5.0,12.0,84,0.00,,,0.00,VWS V12.07,2013-03-01 14:30:00,
2013-03-01 09:40:00,27.2,23.0,29.91,WNW,292,6.0,17.0,84,0.00,,,0.00,VWS V12.07,2013-03-01 14:40:00,
2013-03-01 09:50:00,27.5,23.0,29.91,WNW,292,4.0,12.0,83,0.00,,,0.00,VWS V12.07,2013-03-01 14:50:00,
2013-03-01 10:00:00,27.6,22.8,29.91,West,270,4.0,12.0,82,0.00,,,0.00,VWS V12.07,2013-03-01 15:00:00,
2013-03-01 10:10:00,27.8,23.0,29.91,West,270,4.0,10.0,82,0.00,,,0.00,VWS V12.07,2013-03-01 15:10:00,
2013-03-01 10:20:00,27.9,23.1,29.91,NW,315,5.0,13.0,82,0.00,,,0.00,VWS V12.07,2013-03-01 15:20:00,
2013-03-01 10:30:00,28.1,23.0,29.91,WNW,292,5.0,14.0,81,0.00,,,0.00,VWS V12.07,2013-03-01 15:30:00,
2013-03-01 10:40:00,28.2,23.1,29.91,WNW,292,5.0,11.0,81,0.00,,,0.00,VWS V12.07,2013-03-01 15:40:00,
2013-03-01 10:50:00,28.4,23.3,29.91,West,270,5.0,14.0,81,0.00,,,0.00,VWS V12.07,2013-03-01 15:50:00,
2013-03-01 11:00:00,28.5,23.4,29.92,WNW,292,3.0,11.0,81,0.00,,,0.00,VWS V12.07,2013-03-01 16:00:00,
2013-03-01 11:10:00,28.7,23.6,29.92,WNW,292,5.0,16.0,81,0.00,,,0.00,VWS V12.07,2013-03-01 16:10:00,
2013-03-01 11:20:00,28.5,23.1,29.91,WNW,292,4.0,14.0,80,0.00,,,0.00,VWS V12.07,2013-03-01 16:20:00,
2013-03-01 11:30:00,28.7,23.3,29.92,WNW,292,4.0,10.0,80,0.00,,,0.00,VWS V12.07,2013-03-01 16:30:00,
2013-03-01 11:40:00,28.7,23.0,29.92,West,270,6.0,14.0,79,0.00,,,0.00,VWS V12.07,2013-03-01 16:40:00,
2013-03-01 11:50:00,29.0,23.3,29.92,NW,315,5.0,12.0,79,0.00,,,0.00,VWS V12.07,2013-03-01 16:50:00,
2013-03-01 12:00:00,29.0,23.0,29.92,WNW,292,6.0,13.0,78,0.00,,,0.00,VWS V12.07,2013-03-01 17:00:00,
2013-03-01 12:10:00,29.4,23.7,29.92,NNW,338,4.0,14.0,79,0.00,,,0.00,VWS V12.07,2013-03-01 17:10:00,
2013-03-01 12:20:00,29.7,24.0,29.92,WNW,292,4.0,12.0,79,0.00,,,0.00,VWS V12.07,2013-03-01 17:20:00,
2013-03-01 12:30:00,30.4,24.4,29.92,NW,315,5.0,12.0,78,0.00,,,0.00,VWS V12.07,2013-03-01 17:30:00,
2013-03-01 12:40:00,30.4,24.1,29.92,WNW,292,5.0,13.0,77,0.00,,,0.00,VWS V12.07,2013-03-01 17:40:00,
2013-03-01 12:50:00,30.4,23.4,29.90,West,270,5.0,14.0,75,0.00,,,0.00,VWS V12.07,2013-03-01 17:50:00,
2013-03-01 13:00:00,30.6,23.6,29.90,NW,315,4.0,11.0,75,0.00,,,0.00,VWS V12.07,2013-03-01 18:00:00,
2013-03-01 13:10:00,30.7,23.7,29.90,WNW,292,5.0,17.0,75,0.00,,,0.00,VWS V12.07,2013-03-01 18:10:00,
2013-03-01 13:20:00,30.6,23.0,29.89,WNW,292,5.0,17.0,73,0.00,,,0.00,VWS V12.07,2013-03-01 18:20:00,
2013-03-01 13:30:00,31.0,23.7,29.89,WNW,292,4.0,10.0,74,0.00,,,0.00,VWS V12.07,2013-03-01 18:30:00,
2013-03-01 13:40:00,30.9,23.6,29.89,WNW,292,7.0,17.0,74,0.00,,,0.00,VWS V12.07,2013-03-01 18:40:00,
2013-03-01 13:50:00,30.9,23.0,29.89,NNW,338,6.0,16.0,72,0.00,,,0.00,VWS V12.07,2013-03-01 18:50:00,
2013-03-01 14:00:00,30.7,23.4,29.88,WNW,292,6.0,15.0,74,0.00,,,0.00,VWS V12.07,2013-03-01 19:00:00,
2013-03-01 14:10:00,31.2,23.6,29.88,NW,315,5.0,14.0,73,0.00,,,0.00,VWS V12.07,2013-03-01 19:10:00,
2013-03-01 14:20:00,31.2,23.6,29.88,WNW,292,7.0,15.0,73,0.00,,,0.00,VWS V12.07,2013-03-01 19:20:00,
2013-03-01 14:30:00,31.3,23.3,29.87,WNW,292,6.0,21.0,72,0.00,,,0.00,VWS V12.07,2013-03-01 19:30:00,
2013-03-01 14:40:00,31.2,22.9,29.87,West,270,7.0,16.0,71,0.00,,,0.00,VWS V12.07,2013-03-01 19:40:00,
2013-03-01 14:50:00,31.3,23.0,29.87,WNW,292,8.0,21.0,71,0.01,,,0.01,VWS V12.07,2013-03-01 19:50:00,
2013-03-01 15:00:00,31.8,23.5,29.86,NW,315,5.0,16.0,71,0.01,,,0.01,VWS V12.07,2013-03-01 20:00:00,
2013-03-01 15:10:00,31.8,23.8,29.86,NNW,338,5.0,15.0,72,0.01,,,0.01,VWS V12.07,2013-03-01 20:10:00,
2013-03-01 15:20:00,31.3,22.7,29.86,WNW,292,7.0,21.0,70,0.01,,,0.01,VWS V12.07,2013-03-01 20:20:00,
2013-03-01 15:30:00,31.0,23.0,29.87,WNW,292,6.0,15.0,72,0.01,,,0.01,VWS V12.07,2013-03-01 20:30:00,
2013-03-01 15:40:00,31.0,23.0,29.87,WNW,292,6.0,13.0,72,0.01,,,0.01,VWS V12.07,2013-03-01 20:40:00,
2013-03-01 15:50:00,30.9,21.9,29.87,West,270,5.0,12.0,69,0.01,,,0.01,VWS V12.07,2013-03-01 20:50:00,
2013-03-01 16:00:00,30.4,21.8,29.87,WNW,292,7.0,14.0,70,0.00,,,0.01,VWS V12.07,2013-03-01 21:00:00,
2013-03-01 16:10:00,30.9,22.6,29.87,WNW,292,5.0,16.0,71,0.00,,,0.01,VWS V12.07,2013-03-01 21:10:00,
2013-03-01 16:20:00,30.6,22.0,29.87,WNW,292,6.0,14.0,70,0.00,,,0.01,VWS V12.07,2013-03-01 21:20:00,
2013-03-01 16:30:00,30.4,21.5,29.87,WNW,292,6.0,13.0,69,0.00,,,0.01,VWS V12.07,2013-03-01 21:30:00,
2013-03-01 16:40:00,30.4,21.8,29.87,West,270,4.0,14.0,70,0.00,,,0.01,VWS V12.07,2013-03-01 21:40:00,
2013-03-01 16:50:00,30.6,22.3,29.88,West,270,3.0,9.0,71,0.00,,,0.01,VWS V12.07,2013-03-01 21:50:00,
2013-03-01 17:00:00,30.7,22.8,29.87,NW,315,3.0,13.0,72,0.00,,,0.01,VWS V12.07,2013-03-01 22:00:00,
2013-03-01 17:10:00,30.7,22.4,29.87,WNW,292,4.0,13.0,71,0.00,,,0.01,VWS V12.07,2013-03-01 22:10:00,
2013-03-01 17:20:00,30.4,22.1,29.88,WNW,292,5.0,17.0,71,0.00,,,0.01,VWS V12.07,2013-03-01 22:20:00,
2013-03-01 17:30:00,30.3,22.0,29.88,NW,315,5.0,13.0,71,0.00,,,0.01,VWS V12.07,2013-03-01 22:30:00,
2013-03-01 17:40:00,30.3,22.0,29.88,WNW,292,4.0,13.0,71,0.00,,,0.01,VWS V12.07,2013-03-01 22:40:00,
2013-03-01 17:50:00,30.3,22.4,29.88,WNW,292,5.0,13.0,72,0.00,,,0.01,VWS V12.07,2013-03-01 22:50:00,
2013-03-01 18:00:00,30.3,22.4,29.89,West,270,5.0,15.0,72,0.00,,,0.01,VWS V12.07,2013-03-01 23:00:00,
2013-03-01 18:10:00,30.1,22.2,29.89,WNW,292,3.0,14.0,72,0.00,,,0.01,VWS V12.07,2013-03-01 23:10:00,
2013-03-01 18:20:00,30.1,22.2,29.89,West,270,1.0,5.0,72,0.00,,,0.01,VWS V12.07,2013-03-01 23:20:00,
2013-03-01 18:30:00,30.1,22.5,29.90,WNW,292,2.0,9.0,73,0.00,,,0.01,VWS V12.07,2013-03-01 23:30:00,
2013-03-01 18:40:00,30.1,22.8,29.90,West,270,5.0,12.0,74,0.00,,,0.01,VWS V12.07,2013-03-01 23:40:00,
2013-03-01 18:50:00,30.0,22.7,29.90,NW,315,3.0,9.0,74,0.00,,,0.01,VWS V12.07,2013-03-01 23:50:00,
2013-03-01 19:00:00,29.8,22.9,29.90,NNW,338,5.0,15.0,75,0.00,,,0.01,VWS V12.07,2013-03-02 00:00:00,
2013-03-01 19:10:00,29.8,22.9,29.90,West,270,3.0,9.0,75,0.00,,,0.01,VWS V12.07,2013-03-02 00:10:00,
2013-03-01 19:20:00,29.8,23.5,29.90,NW,315,5.0,16.0,77,0.00,,,0.01,VWS V12.07,2013-03-02 00:20:00,
2013-03-01 19:30:00,29.8,23.5,29.90,WNW,292,4.0,10.0,77,0.00,,,0.01,VWS V12.07,2013-03-02 00:30:00,
2013-03-01 19:40:00,29.8,23.5,29.90,West,270,2.0,5.0,77,0.00,,,0.01,VWS V12.07,2013-03-02 00:40:00,
2013-03-01 19:50:00,29.8,23.8,29.90,NW,315,3.0,12.0,78,0.00,,,0.01,VWS V12.07,2013-03-02 00:50:00,
2013-03-01 20:00:00,29.8,23.8,29.91,NW,315,1.0,4.0,78,0.00,,,0.01,VWS V12.07,2013-03-02 01:00:00,
2013-03-01 20:10:00,29.7,23.7,29.91,West,270,5.0,12.0,78,0.00,,,0.01,VWS V12.07,2013-03-02 01:10:00,
2013-03-01 20:20:00,29.7,23.7,29.91,West,270,4.0,12.0,78,0.00,,,0.01,VWS V12.07,2013-03-02 01:20:00,
2013-03-01 20:30:00,29.7,23.7,29.91,West,270,2.0,9.0,78,0.00,,,0.01,VWS V12.07,2013-03-02 01:30:00,
2013-03-01 20:40:00,29.7,23.7,29.91,NW,315,2.0,11.0,78,0.00,,,0.01,VWS V12.07,2013-03-02 01:40:00,
2013-03-01 20:50:00,29.5,23.5,29.90,NW,315,3.0,10.0,78,0.00,,,0.01,VWS V12.07,2013-03-02 01:50:00,
2013-03-01 21:00:00,29.5,23.2,29.91,West,270,4.0,12.0,77,0.00,,,0.01,VWS V12.07,2013-03-02 02:00:00,
2013-03-01 21:10:00,29.5,23.2,29.91,WNW,292,4.0,11.0,77,0.00,,,0.01,VWS V12.07,2013-03-02 02:10:00,
2013-03-01 21:20:00,29.7,23.4,29.91,West,270,7.0,18.0,77,0.00,,,0.01,VWS V12.07,2013-03-02 02:20:00,
2013-03-01 21:30:00,29.5,23.5,29.90,WNW,292,4.0,9.0,78,0.00,,,0.01,VWS V12.07,2013-03-02 02:30:00,
2013-03-01 21:40:00,29.5,23.5,29.90,NW,315,3.0,11.0,78,0.00,,,0.01,VWS V12.07,2013-03-02 02:40:00,
2013-03-01 21:50:00,29.5,23.5,29.91,WNW,292,4.0,14.0,78,0.00,,,0.01,VWS V12.07,2013-03-02 02:50:00,
2013-03-01 22:00:00,29.4,23.4,29.91,WNW,292,2.0,9.0,78,0.00,,,0.01,VWS V12.07,2013-03-02 03:00:00,
2013-03-01 22:10:00,29.3,23.3,29.91,West,270,2.0,6.0,78,0.00,,,0.01,VWS V12.07,2013-03-02 03:10:00,
2013-03-01 22:20:00,29.3,23.3,29.90,WNW,292,3.0,6.0,78,0.00,,,0.01,VWS V12.07,2013-03-02 03:20:00,
2013-03-01 22:30:00,29.1,23.4,29.90,WNW,292,3.0,9.0,79,0.00,,,0.01,VWS V12.07,2013-03-02 03:30:00,
2013-03-01 22:40:00,29.0,23.0,29.90,WNW,292,4.0,12.0,78,0.00,,,0.01,VWS V12.07,2013-03-02 03:40:00,
2013-03-01 22:50:00,29.0,23.0,29.90,WNW,292,2.0,7.0,78,0.00,,,0.01,VWS V12.07,2013-03-02 03:50:00,
2013-03-01 23:00:00,29.0,23.0,29.90,NW,315,0.0,4.0,78,0.00,,,0.01,VWS V12.07,2013-03-02 04:00:00,
2013-03-01 23:10:00,29.0,23.3,29.90,NW,315,0.0,2.0,79,0.00,,,0.01,VWS V12.07,2013-03-02 04:10:00,
2013-03-01 23:20:00,29.0,23.6,29.90,NW,315,0.0,2.0,80,0.00,,,0.01,VWS V12.07,2013-03-02 04:20:00,
2013-03-01 23:30:00,29.0,23.9,29.89,WNW,292,3.0,8.0,81,0.00,,,0.01,VWS V12.07,2013-03-02 04:30:00,
2013-03-01 23:40:00,29.0,23.9,29.89,WNW,292,3.0,8.0,81,0.00,,,0.01,VWS V12.07,2013-03-02 04:40:00,
2013-03-01 23:50:00,28.7,23.6,29.89,NW,315,3.0,8.0,81,0.00,,,0.01,VWS V12.07,2013-03-02 04:50:00,